sensor_id;sensor_type;location;lat;lon;timestamp;temperature;humidity
65876;HTU21D;52657;51.128;5.938;2023-07-29T00:00:54;22.82;70.91
65876;HTU21D;52657;51.128;5.938;2023-07-29T00:03:21;22.84;70.81
65876;HTU21D;52657;51.128;5.938;2023-07-29T00:05:48;22.83;70.72
65876;HTU21D;52657;51.128;5.938;2023-07-29T00:08:13;22.81;70.90
65876;HTU21D;52657;51.128;5.938;2023-07-29T00:10:39;22.79;70.93
65876;HTU21D;52657;51.128;5.938;2023-07-29T00:13:06;22.76;70.97
65876;HTU21D;52657;51.128;5.938;2023-07-29T00:15:32;22.66;71.23
65876;HTU21D;52657;51.128;5.938;2023-07-29T00:17:58;22.62;71.34
65876;HTU21D;52657;51.128;5.938;2023-07-29T00:20:24;22.62;71.29
65876;HTU21D;52657;51.128;5.938;2023-07-29T00:22:52;22.61;71.37
65876;HTU21D;52657;51.128;5.938;2023-07-29T00:25:21;22.58;71.54
65876;HTU21D;52657;51.128;5.938;2023-07-29T00:27:47;22.55;71.82
65876;HTU21D;52657;51.128;5.938;2023-07-29T00:30:13;22.60;71.87
65876;HTU21D;52657;51.128;5.938;2023-07-29T00:32:39;22.61;71.86
65876;HTU21D;52657;51.128;5.938;2023-07-29T00:35:05;22.65;71.81
65876;HTU21D;52657;51.128;5.938;2023-07-29T00:37:31;22.66;71.83
65876;HTU21D;52657;51.128;5.938;2023-07-29T00:39:57;22.65;71.96
65876;HTU21D;52657;51.128;5.938;2023-07-29T00:42:27;22.65;72.13
65876;HTU21D;52657;51.128;5.938;2023-07-29T00:44:52;22.65;72.20
65876;HTU21D;52657;51.128;5.938;2023-07-29T00:47:20;22.65;72.29
65876;HTU21D;52657;51.128;5.938;2023-07-29T00:49:50;22.71;72.09
65876;HTU21D;52657;51.128;5.938;2023-07-29T00:52:16;22.65;72.29
65876;HTU21D;52657;51.128;5.938;2023-07-29T00:54:42;22.64;72.48
65876;HTU21D;52657;51.128;5.938;2023-07-29T00:57:11;22.63;72.75
65876;HTU21D;52657;51.128;5.938;2023-07-29T00:59:39;22.64;72.81
65876;HTU21D;52657;51.128;5.938;2023-07-29T01:02:06;22.67;72.87
65876;HTU21D;52657;51.128;5.938;2023-07-29T01:04:32;22.66;72.90
65876;HTU21D;52657;51.128;5.938;2023-07-29T01:10:09;22.65;73.16
65876;HTU21D;52657;51.128;5.938;2023-07-29T01:15:46;22.67;73.42
65876;HTU21D;52657;51.128;5.938;2023-07-29T01:18:26;22.68;73.49
65876;HTU21D;52657;51.128;5.938;2023-07-29T01:20:54;22.69;73.62
65876;HTU21D;52657;51.128;5.938;2023-07-29T01:23:29;22.71;73.59
65876;HTU21D;52657;51.128;5.938;2023-07-29T01:25:55;22.73;73.47
65876;HTU21D;52657;51.128;5.938;2023-07-29T01:28:21;22.75;73.44
65876;HTU21D;52657;51.128;5.938;2023-07-29T01:30:50;22.73;73.45
65876;HTU21D;52657;51.128;5.938;2023-07-29T01:33:35;22.71;73.64
65876;HTU21D;52657;51.128;5.938;2023-07-29T01:36:13;22.68;73.70
65876;HTU21D;52657;51.128;5.938;2023-07-29T01:38:42;22.68;73.88
65876;HTU21D;52657;51.128;5.938;2023-07-29T01:41:09;22.70;73.90
65876;HTU21D;52657;51.128;5.938;2023-07-29T01:43:37;22.70;73.81
65876;HTU21D;52657;51.128;5.938;2023-07-29T01:46:12;22.70;73.92
65876;HTU21D;52657;51.128;5.938;2023-07-29T01:48:39;22.69;73.96
65876;HTU21D;52657;51.128;5.938;2023-07-29T01:51:06;22.69;74.04
65876;HTU21D;52657;51.128;5.938;2023-07-29T01:53:32;22.70;74.09
65876;HTU21D;52657;51.128;5.938;2023-07-29T01:55:58;22.67;74.15
65876;HTU21D;52657;51.128;5.938;2023-07-29T01:58:25;22.65;74.41
65876;HTU21D;52657;51.128;5.938;2023-07-29T02:00:51;22.62;74.51
65876;HTU21D;52657;51.128;5.938;2023-07-29T02:03:17;22.58;74.72
65876;HTU21D;52657;51.128;5.938;2023-07-29T02:05:46;22.57;75.02
65876;HTU21D;52657;51.128;5.938;2023-07-29T02:08:11;22.54;75.25
65876;HTU21D;52657;51.128;5.938;2023-07-29T02:10:37;22.54;75.41
65876;HTU21D;52657;51.128;5.938;2023-07-29T02:13:04;22.52;75.56
65876;HTU21D;52657;51.128;5.938;2023-07-29T02:15:30;22.53;75.61
65876;HTU21D;52657;51.128;5.938;2023-07-29T02:17:56;22.52;75.66
65876;HTU21D;52657;51.128;5.938;2023-07-29T02:20:22;22.54;75.72
65876;HTU21D;52657;51.128;5.938;2023-07-29T02:22:50;22.55;75.71
65876;HTU21D;52657;51.128;5.938;2023-07-29T02:25:15;22.54;75.69
65876;HTU21D;52657;51.128;5.938;2023-07-29T02:27:41;22.52;75.73
65876;HTU21D;52657;51.128;5.938;2023-07-29T02:30:07;22.48;75.82
65876;HTU21D;52657;51.128;5.938;2023-07-29T02:32:38;22.44;76.00
65876;HTU21D;52657;51.128;5.938;2023-07-29T02:35:04;22.40;76.18
65876;HTU21D;52657;51.128;5.938;2023-07-29T02:37:30;22.40;76.11
65876;HTU21D;52657;51.128;5.938;2023-07-29T02:39:56;22.40;76.11
65876;HTU21D;52657;51.128;5.938;2023-07-29T02:42:22;22.44;76.02
65876;HTU21D;52657;51.128;5.938;2023-07-29T02:44:48;22.46;75.80
65876;HTU21D;52657;51.128;5.938;2023-07-29T02:47:15;22.48;75.63
65876;HTU21D;52657;51.128;5.938;2023-07-29T02:49:40;22.56;75.09
65876;HTU21D;52657;51.128;5.938;2023-07-29T02:52:06;22.49;74.96
65876;HTU21D;52657;51.128;5.938;2023-07-29T02:54:32;22.46;74.89
65876;HTU21D;52657;51.128;5.938;2023-07-29T02:56:58;22.42;74.64
65876;HTU21D;52657;51.128;5.938;2023-07-29T02:59:27;22.41;74.38
65876;HTU21D;52657;51.128;5.938;2023-07-29T03:01:52;22.38;74.20
65876;HTU21D;52657;51.128;5.938;2023-07-29T03:04:19;22.34;74.13
65876;HTU21D;52657;51.128;5.938;2023-07-29T03:06:47;22.32;74.06
65876;HTU21D;52657;51.128;5.938;2023-07-29T03:09:13;22.33;73.85
65876;HTU21D;52657;51.128;5.938;2023-07-29T03:11:39;22.32;73.66
65876;HTU21D;52657;51.128;5.938;2023-07-29T03:14:05;22.31;73.41
65876;HTU21D;52657;51.128;5.938;2023-07-29T03:16:31;22.28;73.20
65876;HTU21D;52657;51.128;5.938;2023-07-29T03:18:59;22.28;72.75
65876;HTU21D;52657;51.128;5.938;2023-07-29T03:21:25;22.25;72.51
65876;HTU21D;52657;51.128;5.938;2023-07-29T03:23:51;22.23;72.19
65876;HTU21D;52657;51.128;5.938;2023-07-29T03:26:17;22.20;72.03
65876;HTU21D;52657;51.128;5.938;2023-07-29T03:28:43;22.16;72.11
65876;HTU21D;52657;51.128;5.938;2023-07-29T03:31:11;22.13;71.92
65876;HTU21D;52657;51.128;5.938;2023-07-29T03:33:37;22.13;71.68
65876;HTU21D;52657;51.128;5.938;2023-07-29T03:36:03;22.10;71.55
65876;HTU21D;52657;51.128;5.938;2023-07-29T03:38:29;22.05;71.59
65876;HTU21D;52657;51.128;5.938;2023-07-29T03:40:55;22.04;71.52
65876;HTU21D;52657;51.128;5.938;2023-07-29T03:43:24;22.02;71.34
65876;HTU21D;52657;51.128;5.938;2023-07-29T03:45:54;21.98;71.41
65876;HTU21D;52657;51.128;5.938;2023-07-29T03:48:20;21.92;71.25
65876;HTU21D;52657;51.128;5.938;2023-07-29T03:50:46;21.91;71.28
65876;HTU21D;52657;51.128;5.938;2023-07-29T03:53:12;21.89;71.25
65876;HTU21D;52657;51.128;5.938;2023-07-29T03:55:38;21.87;71.22
65876;HTU21D;52657;51.128;5.938;2023-07-29T03:58:04;21.85;71.22
65876;HTU21D;52657;51.128;5.938;2023-07-29T04:00:29;21.85;71.11
65876;HTU21D;52657;51.128;5.938;2023-07-29T04:02:55;21.81;71.03
65876;HTU21D;52657;51.128;5.938;2023-07-29T04:05:22;21.79;70.96
65876;HTU21D;52657;51.128;5.938;2023-07-29T04:07:48;21.74;71.02
65876;HTU21D;52657;51.128;5.938;2023-07-29T04:10:14;21.72;71.10
65876;HTU21D;52657;51.128;5.938;2023-07-29T04:12:40;21.70;71.16
65876;HTU21D;52657;51.128;5.938;2023-07-29T04:15:06;21.69;71.09
65876;HTU21D;52657;51.128;5.938;2023-07-29T04:17:35;21.70;71.01
65876;HTU21D;52657;51.128;5.938;2023-07-29T04:20:03;21.67;70.95
65876;HTU21D;52657;51.128;5.938;2023-07-29T04:22:33;21.66;70.87
65876;HTU21D;52657;51.128;5.938;2023-07-29T04:25:25;21.65;70.87
65876;HTU21D;52657;51.128;5.938;2023-07-29T04:27:51;21.65;70.95
65876;HTU21D;52657;51.128;5.938;2023-07-29T04:30:20;21.65;70.76
65876;HTU21D;52657;51.128;5.938;2023-07-29T04:32:46;21.65;70.73
65876;HTU21D;52657;51.128;5.938;2023-07-29T04:35:14;21.65;70.68
65876;HTU21D;52657;51.128;5.938;2023-07-29T04:37:40;21.63;70.70
65876;HTU21D;52657;51.128;5.938;2023-07-29T04:40:07;21.61;70.76
65876;HTU21D;52657;51.128;5.938;2023-07-29T04:42:32;21.59;70.85
65876;HTU21D;52657;51.128;5.938;2023-07-29T04:44:58;21.58;70.92
65876;HTU21D;52657;51.128;5.938;2023-07-29T04:47:24;21.59;70.71
65876;HTU21D;52657;51.128;5.938;2023-07-29T04:49:50;21.61;70.65
65876;HTU21D;52657;51.128;5.938;2023-07-29T04:52:17;21.59;70.77
65876;HTU21D;52657;51.128;5.938;2023-07-29T04:54:44;21.60;70.81
65876;HTU21D;52657;51.128;5.938;2023-07-29T04:57:10;21.58;70.45
65876;HTU21D;52657;51.128;5.938;2023-07-29T04:59:37;21.54;70.04
65876;HTU21D;52657;51.128;5.938;2023-07-29T05:02:03;21.48;70.16
65876;HTU21D;52657;51.128;5.938;2023-07-29T05:04:29;21.44;69.99
65876;HTU21D;52657;51.128;5.938;2023-07-29T05:06:54;21.42;70.29
65876;HTU21D;52657;51.128;5.938;2023-07-29T05:09:20;21.45;70.10
65876;HTU21D;52657;51.128;5.938;2023-07-29T05:11:47;21.45;70.29
65876;HTU21D;52657;51.128;5.938;2023-07-29T05:14:17;21.47;70.49
65876;HTU21D;52657;51.128;5.938;2023-07-29T05:16:44;21.49;70.41
65876;HTU21D;52657;51.128;5.938;2023-07-29T05:19:10;21.51;70.00
65876;HTU21D;52657;51.128;5.938;2023-07-29T05:21:37;21.52;70.14
65876;HTU21D;52657;51.128;5.938;2023-07-29T05:24:03;21.54;70.18
65876;HTU21D;52657;51.128;5.938;2023-07-29T05:26:29;21.53;69.93
65876;HTU21D;52657;51.128;5.938;2023-07-29T05:28:55;21.53;70.15
65876;HTU21D;52657;51.128;5.938;2023-07-29T05:31:22;21.52;70.08
65876;HTU21D;52657;51.128;5.938;2023-07-29T05:33:48;21.53;70.04
65876;HTU21D;52657;51.128;5.938;2023-07-29T05:36:14;21.49;70.06
65876;HTU21D;52657;51.128;5.938;2023-07-29T05:38:41;21.43;70.48
65876;HTU21D;52657;51.128;5.938;2023-07-29T05:41:06;21.42;70.73
65876;HTU21D;52657;51.128;5.938;2023-07-29T05:43:32;21.33;70.98
65876;HTU21D;52657;51.128;5.938;2023-07-29T05:45:58;21.27;71.35
65876;HTU21D;52657;51.128;5.938;2023-07-29T05:48:24;21.23;71.57
65876;HTU21D;52657;51.128;5.938;2023-07-29T05:50:50;21.22;71.77
65876;HTU21D;52657;51.128;5.938;2023-07-29T05:53:16;21.20;72.02
65876;HTU21D;52657;51.128;5.938;2023-07-29T05:55:42;21.28;72.14
65876;HTU21D;52657;51.128;5.938;2023-07-29T05:58:08;21.30;71.88
65876;HTU21D;52657;51.128;5.938;2023-07-29T06:00:35;21.32;71.79
65876;HTU21D;52657;51.128;5.938;2023-07-29T06:03:01;21.36;71.80
65876;HTU21D;52657;51.128;5.938;2023-07-29T06:05:27;21.45;71.38
65876;HTU21D;52657;51.128;5.938;2023-07-29T06:07:53;21.53;71.38
65876;HTU21D;52657;51.128;5.938;2023-07-29T06:10:19;21.66;71.29
65876;HTU21D;52657;51.128;5.938;2023-07-29T06:12:46;21.76;70.58
65876;HTU21D;52657;51.128;5.938;2023-07-29T06:15:12;21.82;70.31
65876;HTU21D;52657;51.128;5.938;2023-07-29T06:17:38;21.85;69.98
65876;HTU21D;52657;51.128;5.938;2023-07-29T06:20:05;21.91;69.88
65876;HTU21D;52657;51.128;5.938;2023-07-29T06:22:31;22.13;70.09
65876;HTU21D;52657;51.128;5.938;2023-07-29T06:24:57;22.44;69.34
65876;HTU21D;52657;51.128;5.938;2023-07-29T06:27:24;22.68;68.06
65876;HTU21D;52657;51.128;5.938;2023-07-29T06:29:51;22.83;67.10
65876;HTU21D;52657;51.128;5.938;2023-07-29T06:32:19;23.08;66.91
65876;HTU21D;52657;51.128;5.938;2023-07-29T06:34:44;23.60;65.86
65876;HTU21D;52657;51.128;5.938;2023-07-29T06:37:10;23.90;64.07
65876;HTU21D;52657;51.128;5.938;2023-07-29T06:39:36;24.68;62.57
65876;HTU21D;52657;51.128;5.938;2023-07-29T06:42:02;25.10;59.59
65876;HTU21D;52657;51.128;5.938;2023-07-29T06:44:28;25.19;58.02
65876;HTU21D;52657;51.128;5.938;2023-07-29T06:46:54;25.46;58.22
65876;HTU21D;52657;51.128;5.938;2023-07-29T06:49:19;26.15;55.19
65876;HTU21D;52657;51.128;5.938;2023-07-29T06:51:45;26.01;54.85
65876;HTU21D;52657;51.128;5.938;2023-07-29T06:54:11;25.71;55.03
65876;HTU21D;52657;51.128;5.938;2023-07-29T06:56:37;25.53;55.99
65876;HTU21D;52657;51.128;5.938;2023-07-29T06:59:02;25.44;56.25
65876;HTU21D;52657;51.128;5.938;2023-07-29T07:01:28;25.44;57.00
65876;HTU21D;52657;51.128;5.938;2023-07-29T07:03:54;25.90;56.93
65876;HTU21D;52657;51.128;5.938;2023-07-29T07:06:22;26.57;55.14
65876;HTU21D;52657;51.128;5.938;2023-07-29T07:08:50;27.22;53.72
65876;HTU21D;52657;51.128;5.938;2023-07-29T07:11:18;27.95;51.33
65876;HTU21D;52657;51.128;5.938;2023-07-29T07:13:44;28.58;49.95
65876;HTU21D;52657;51.128;5.938;2023-07-29T07:16:10;29.12;48.74
65876;HTU21D;52657;51.128;5.938;2023-07-29T07:18:36;29.45;46.94
65876;HTU21D;52657;51.128;5.938;2023-07-29T07:21:01;29.72;46.51
65876;HTU21D;52657;51.128;5.938;2023-07-29T07:23:27;29.98;45.06
65876;HTU21D;52657;51.128;5.938;2023-07-29T07:25:53;30.19;45.18
65876;HTU21D;52657;51.128;5.938;2023-07-29T07:28:19;30.47;44.67
65876;HTU21D;52657;51.128;5.938;2023-07-29T07:30:45;30.71;44.00
65876;HTU21D;52657;51.128;5.938;2023-07-29T07:33:10;30.84;43.78
65876;HTU21D;52657;51.128;5.938;2023-07-29T07:35:36;30.96;42.83
65876;HTU21D;52657;51.128;5.938;2023-07-29T07:38:03;31.13;42.57
65876;HTU21D;52657;51.128;5.938;2023-07-29T07:40:32;31.41;42.07
65876;HTU21D;52657;51.128;5.938;2023-07-29T07:42:58;31.61;41.16
65876;HTU21D;52657;51.128;5.938;2023-07-29T07:45:27;31.68;40.67
65876;HTU21D;52657;51.128;5.938;2023-07-29T07:47:53;31.57;40.23
65876;HTU21D;52657;51.128;5.938;2023-07-29T07:50:19;31.54;40.79
65876;HTU21D;52657;51.128;5.938;2023-07-29T07:52:45;31.59;40.48
65876;HTU21D;52657;51.128;5.938;2023-07-29T07:55:11;31.59;39.79
65876;HTU21D;52657;51.128;5.938;2023-07-29T07:57:37;31.53;41.01
65876;HTU21D;52657;51.128;5.938;2023-07-29T08:00:03;31.78;40.60
65876;HTU21D;52657;51.128;5.938;2023-07-29T08:02:38;32.07;40.08
65876;HTU21D;52657;51.128;5.938;2023-07-29T08:05:04;32.11;39.76
65876;HTU21D;52657;51.128;5.938;2023-07-29T08:07:30;31.90;38.14
65876;HTU21D;52657;51.128;5.938;2023-07-29T08:09:56;31.53;39.93
65876;HTU21D;52657;51.128;5.938;2023-07-29T08:12:22;31.35;39.73
65876;HTU21D;52657;51.128;5.938;2023-07-29T08:14:48;30.99;40.07
65876;HTU21D;52657;51.128;5.938;2023-07-29T08:17:13;30.66;40.96
65876;HTU21D;52657;51.128;5.938;2023-07-29T08:19:39;30.26;41.13
65876;HTU21D;52657;51.128;5.938;2023-07-29T08:22:05;29.94;42.28
65876;HTU21D;52657;51.128;5.938;2023-07-29T08:24:31;29.80;43.00
65876;HTU21D;52657;51.128;5.938;2023-07-29T08:26:57;29.52;43.15
65876;HTU21D;52657;51.128;5.938;2023-07-29T08:29:22;29.29;43.55
65876;HTU21D;52657;51.128;5.938;2023-07-29T08:31:48;29.15;44.07
65876;HTU21D;52657;51.128;5.938;2023-07-29T08:34:17;29.22;45.02
65876;HTU21D;52657;51.128;5.938;2023-07-29T08:36:46;29.39;45.09
65876;HTU21D;52657;51.128;5.938;2023-07-29T08:39:12;29.38;44.22
65876;HTU21D;52657;51.128;5.938;2023-07-29T08:44:43;28.14;45.34
65876;HTU21D;52657;51.128;5.938;2023-07-29T08:47:11;27.72;47.15
65876;HTU21D;52657;51.128;5.938;2023-07-29T08:49:40;27.64;47.90
65876;HTU21D;52657;51.128;5.938;2023-07-29T08:52:07;27.46;47.53
65876;HTU21D;52657;51.128;5.938;2023-07-29T08:54:33;27.24;48.02
65876;HTU21D;52657;51.128;5.938;2023-07-29T08:57:00;27.04;48.80
65876;HTU21D;52657;51.128;5.938;2023-07-29T08:59:27;26.91;49.27
65876;HTU21D;52657;51.128;5.938;2023-07-29T09:01:54;26.80;49.64
65876;HTU21D;52657;51.128;5.938;2023-07-29T09:04:23;26.77;50.55
65876;HTU21D;52657;51.128;5.938;2023-07-29T09:06:53;26.92;51.17
65876;HTU21D;52657;51.128;5.938;2023-07-29T09:09:21;26.93;50.16
65876;HTU21D;52657;51.128;5.938;2023-07-29T09:11:48;26.91;49.73
65876;HTU21D;52657;51.128;5.938;2023-07-29T09:14:14;26.79;49.67
65876;HTU21D;52657;51.128;5.938;2023-07-29T09:16:40;26.68;50.18
65876;HTU21D;52657;51.128;5.938;2023-07-29T09:19:06;26.86;50.66
65876;HTU21D;52657;51.128;5.938;2023-07-29T09:21:32;27.22;50.18
65876;HTU21D;52657;51.128;5.938;2023-07-29T09:24:03;27.41;48.82
65876;HTU21D;52657;51.128;5.938;2023-07-29T09:26:29;27.57;49.26
65876;HTU21D;52657;51.128;5.938;2023-07-29T09:28:58;27.87;48.08
65876;HTU21D;52657;51.128;5.938;2023-07-29T09:31:27;27.98;46.89
65876;HTU21D;52657;51.128;5.938;2023-07-29T09:34:01;28.00;46.69
65876;HTU21D;52657;51.128;5.938;2023-07-29T09:36:27;28.06;46.89
65876;HTU21D;52657;51.128;5.938;2023-07-29T09:38:56;28.18;46.27
65876;HTU21D;52657;51.128;5.938;2023-07-29T09:41:27;28.30;45.54
65876;HTU21D;52657;51.128;5.938;2023-07-29T09:44:01;28.33;45.93
65876;HTU21D;52657;51.128;5.938;2023-07-29T09:46:35;28.27;45.84
65876;HTU21D;52657;51.128;5.938;2023-07-29T09:49:06;28.16;46.20
65876;HTU21D;52657;51.128;5.938;2023-07-29T09:51:37;28.09;45.85
65876;HTU21D;52657;51.128;5.938;2023-07-29T09:54:04;28.15;46.25
65876;HTU21D;52657;51.128;5.938;2023-07-29T09:56:30;28.29;45.79
65876;HTU21D;52657;51.128;5.938;2023-07-29T09:58:57;28.21;46.07
65876;HTU21D;52657;51.128;5.938;2023-07-29T10:01:24;28.18;45.83
65876;HTU21D;52657;51.128;5.938;2023-07-29T10:03:50;28.08;45.56
65876;HTU21D;52657;51.128;5.938;2023-07-29T10:06:17;27.89;45.83
65876;HTU21D;52657;51.128;5.938;2023-07-29T10:08:45;27.87;47.00
65876;HTU21D;52657;51.128;5.938;2023-07-29T10:11:14;27.98;47.08
65876;HTU21D;52657;51.128;5.938;2023-07-29T10:13:41;28.10;47.01
65876;HTU21D;52657;51.128;5.938;2023-07-29T10:16:06;28.16;46.93
65876;HTU21D;52657;51.128;5.938;2023-07-29T10:18:33;28.10;46.16
65876;HTU21D;52657;51.128;5.938;2023-07-29T10:21:01;27.98;46.66
65876;HTU21D;52657;51.128;5.938;2023-07-29T10:23:32;27.89;46.89
65876;HTU21D;52657;51.128;5.938;2023-07-29T10:26:04;27.84;46.80
65876;HTU21D;52657;51.128;5.938;2023-07-29T10:28:31;27.81;47.36
65876;HTU21D;52657;51.128;5.938;2023-07-29T10:30:59;27.64;47.67
65876;HTU21D;52657;51.128;5.938;2023-07-29T10:33:26;27.57;47.89
65876;HTU21D;52657;51.128;5.938;2023-07-29T10:35:53;27.64;48.28
65876;HTU21D;52657;51.128;5.938;2023-07-29T10:38:24;27.82;47.67
65876;HTU21D;52657;51.128;5.938;2023-07-29T10:40:57;28.00;47.17
65876;HTU21D;52657;51.128;5.938;2023-07-29T10:43:36;28.13;46.99
65876;HTU21D;52657;51.128;5.938;2023-07-29T10:46:22;28.39;47.40
65876;HTU21D;52657;51.128;5.938;2023-07-29T10:51:29;28.70;44.93
65876;HTU21D;52657;51.128;5.938;2023-07-29T10:53:58;28.65;45.39
65876;HTU21D;52657;51.128;5.938;2023-07-29T10:56:47;28.65;46.37
65876;HTU21D;52657;51.128;5.938;2023-07-29T11:01:43;28.82;45.97
65876;HTU21D;52657;51.128;5.938;2023-07-29T11:04:22;28.86;46.22
65876;HTU21D;52657;51.128;5.938;2023-07-29T11:17:56;28.97;44.95
65876;HTU21D;52657;51.128;5.938;2023-07-29T11:20:27;28.87;45.19
65876;HTU21D;52657;51.128;5.938;2023-07-29T11:22:55;28.87;44.92
65876;HTU21D;52657;51.128;5.938;2023-07-29T11:25:23;28.86;45.38
65876;HTU21D;52657;51.128;5.938;2023-07-29T11:27:51;28.93;45.86
65876;HTU21D;52657;51.128;5.938;2023-07-29T11:30:18;29.01;45.63
65876;HTU21D;52657;51.128;5.938;2023-07-29T11:32:46;29.00;45.41
65876;HTU21D;52657;51.128;5.938;2023-07-29T11:35:17;28.93;45.14
65876;HTU21D;52657;51.128;5.938;2023-07-29T11:37:48;28.90;44.88
65876;HTU21D;52657;51.128;5.938;2023-07-29T11:40:19;28.85;45.16
65876;HTU21D;52657;51.128;5.938;2023-07-29T11:42:46;28.91;45.20
65876;HTU21D;52657;51.128;5.938;2023-07-29T11:45:14;28.98;45.51
65876;HTU21D;52657;51.128;5.938;2023-07-29T11:47:40;29.04;44.60
65876;HTU21D;52657;51.128;5.938;2023-07-29T11:50:08;28.99;44.52
65876;HTU21D;52657;51.128;5.938;2023-07-29T11:52:36;28.86;44.48
65876;HTU21D;52657;51.128;5.938;2023-07-29T11:55:04;28.74;44.96
65876;HTU21D;52657;51.128;5.938;2023-07-29T11:57:38;28.71;44.55
65876;HTU21D;52657;51.128;5.938;2023-07-29T12:00:09;28.63;45.18
65876;HTU21D;52657;51.128;5.938;2023-07-29T12:02:46;28.59;45.73
65876;HTU21D;52657;51.128;5.938;2023-07-29T12:05:20;28.56;46.86
65876;HTU21D;52657;51.128;5.938;2023-07-29T12:07:49;28.69;47.17
65876;HTU21D;52657;51.128;5.938;2023-07-29T12:10:31;28.72;46.82
65876;HTU21D;52657;51.128;5.938;2023-07-29T12:13:02;28.57;46.83
65876;HTU21D;52657;51.128;5.938;2023-07-29T12:15:34;28.50;47.23
65876;HTU21D;52657;51.128;5.938;2023-07-29T12:18:05;28.41;47.49
65876;HTU21D;52657;51.128;5.938;2023-07-29T12:20:32;28.24;47.70
65876;HTU21D;52657;51.128;5.938;2023-07-29T12:23:01;28.16;47.83
65876;HTU21D;52657;51.128;5.938;2023-07-29T12:25:28;28.12;48.24
65876;HTU21D;52657;51.128;5.938;2023-07-29T12:27:54;28.13;48.34
65876;HTU21D;52657;51.128;5.938;2023-07-29T12:30:25;28.02;48.95
65876;HTU21D;52657;51.128;5.938;2023-07-29T12:32:54;27.96;49.43
65876;HTU21D;52657;51.128;5.938;2023-07-29T12:35:36;27.82;50.05
65876;HTU21D;52657;51.128;5.938;2023-07-29T12:38:02;27.74;50.69
65876;HTU21D;52657;51.128;5.938;2023-07-29T12:40:28;27.76;50.91
65876;HTU21D;52657;51.128;5.938;2023-07-29T12:42:57;27.74;50.90
65876;HTU21D;52657;51.128;5.938;2023-07-29T12:45:26;27.73;50.75
65876;HTU21D;52657;51.128;5.938;2023-07-29T12:47:58;27.68;50.80
65876;HTU21D;52657;51.128;5.938;2023-07-29T12:50:27;27.64;50.63
65876;HTU21D;52657;51.128;5.938;2023-07-29T12:52:53;27.59;50.59
65876;HTU21D;52657;51.128;5.938;2023-07-29T12:55:18;27.59;50.68
65876;HTU21D;52657;51.128;5.938;2023-07-29T12:57:44;27.47;50.11
65876;HTU21D;52657;51.128;5.938;2023-07-29T13:00:11;27.34;50.57
65876;HTU21D;52657;51.128;5.938;2023-07-29T13:02:38;27.17;51.10
65876;HTU21D;52657;51.128;5.938;2023-07-29T13:05:04;27.06;51.51
65876;HTU21D;52657;51.128;5.938;2023-07-29T13:07:30;26.92;52.01
65876;HTU21D;52657;51.128;5.938;2023-07-29T13:09:55;26.91;52.41
65876;HTU21D;52657;51.128;5.938;2023-07-29T13:12:21;26.96;52.53
65876;HTU21D;52657;51.128;5.938;2023-07-29T13:14:47;27.07;52.81
65876;HTU21D;52657;51.128;5.938;2023-07-29T13:17:12;27.19;52.63
65876;HTU21D;52657;51.128;5.938;2023-07-29T13:19:38;27.15;52.93
65876;HTU21D;52657;51.128;5.938;2023-07-29T13:22:04;27.08;53.05
65876;HTU21D;52657;51.128;5.938;2023-07-29T13:24:30;26.89;53.52
65876;HTU21D;52657;51.128;5.938;2023-07-29T13:26:58;26.62;53.59
65876;HTU21D;52657;51.128;5.938;2023-07-29T13:29:23;26.10;54.77
65876;HTU21D;52657;51.128;5.938;2023-07-29T13:31:50;25.87;56.50
65876;HTU21D;52657;51.128;5.938;2023-07-29T13:34:16;25.88;57.79
65876;HTU21D;52657;51.128;5.938;2023-07-29T13:36:41;25.99;58.08
65876;HTU21D;52657;51.128;5.938;2023-07-29T13:39:07;26.08;58.04
65876;HTU21D;52657;51.128;5.938;2023-07-29T13:41:33;26.03;58.16
65876;HTU21D;52657;51.128;5.938;2023-07-29T13:43:59;25.98;57.70
65876;HTU21D;52657;51.128;5.938;2023-07-29T13:46:24;25.96;57.36
65876;HTU21D;52657;51.128;5.938;2023-07-29T13:48:50;25.92;58.38
65876;HTU21D;52657;51.128;5.938;2023-07-29T13:51:16;25.99;58.53
65876;HTU21D;52657;51.128;5.938;2023-07-29T13:53:42;26.08;58.46
65876;HTU21D;52657;51.128;5.938;2023-07-29T13:56:08;26.17;58.77
65876;HTU21D;52657;51.128;5.938;2023-07-29T13:58:34;26.24;58.53
65876;HTU21D;52657;51.128;5.938;2023-07-29T14:00:59;26.22;59.04
65876;HTU21D;52657;51.128;5.938;2023-07-29T14:03:25;26.17;60.05
65876;HTU21D;52657;51.128;5.938;2023-07-29T14:05:51;26.26;59.95
65876;HTU21D;52657;51.128;5.938;2023-07-29T14:08:20;26.35;59.22
65876;HTU21D;52657;51.128;5.938;2023-07-29T14:10:51;26.43;59.34
65876;HTU21D;52657;51.128;5.938;2023-07-29T14:13:17;26.56;60.04
65876;HTU21D;52657;51.128;5.938;2023-07-29T14:15:43;26.72;59.83
65876;HTU21D;52657;51.128;5.938;2023-07-29T14:18:12;26.87;58.80
65876;HTU21D;52657;51.128;5.938;2023-07-29T14:20:38;26.93;57.88
65876;HTU21D;52657;51.128;5.938;2023-07-29T14:23:04;26.97;57.50
65876;HTU21D;52657;51.128;5.938;2023-07-29T14:25:30;27.00;56.93
65876;HTU21D;52657;51.128;5.938;2023-07-29T14:27:58;27.04;57.11
65876;HTU21D;52657;51.128;5.938;2023-07-29T14:30:24;27.01;56.32
65876;HTU21D;52657;51.128;5.938;2023-07-29T14:32:50;26.97;56.97
65876;HTU21D;52657;51.128;5.938;2023-07-29T14:35:16;26.96;57.32
65876;HTU21D;52657;51.128;5.938;2023-07-29T14:37:42;27.06;57.82
65876;HTU21D;52657;51.128;5.938;2023-07-29T14:40:08;27.15;57.24
65876;HTU21D;52657;51.128;5.938;2023-07-29T14:42:33;27.25;55.94
65876;HTU21D;52657;51.128;5.938;2023-07-29T14:44:59;27.32;55.38
65876;HTU21D;52657;51.128;5.938;2023-07-29T14:47:25;27.24;55.19
65876;HTU21D;52657;51.128;5.938;2023-07-29T14:49:51;27.19;55.68
65876;HTU21D;52657;51.128;5.938;2023-07-29T14:52:16;27.14;56.04
65876;HTU21D;52657;51.128;5.938;2023-07-29T14:54:42;27.19;56.17
65876;HTU21D;52657;51.128;5.938;2023-07-29T14:57:10;27.13;55.74
65876;HTU21D;52657;51.128;5.938;2023-07-29T14:59:38;27.11;56.74
65876;HTU21D;52657;51.128;5.938;2023-07-29T15:02:04;27.22;56.42
65876;HTU21D;52657;51.128;5.938;2023-07-29T15:04:30;27.39;57.01
65876;HTU21D;52657;51.128;5.938;2023-07-29T15:06:59;27.56;56.72
65876;HTU21D;52657;51.128;5.938;2023-07-29T15:09:25;27.63;56.01
65876;HTU21D;52657;51.128;5.938;2023-07-29T15:11:51;27.66;55.31
65876;HTU21D;52657;51.128;5.938;2023-07-29T15:14:17;27.60;55.96
65876;HTU21D;52657;51.128;5.938;2023-07-29T15:16:43;27.65;56.06
65876;HTU21D;52657;51.128;5.938;2023-07-29T15:19:09;27.68;55.61
65876;HTU21D;52657;51.128;5.938;2023-07-29T15:21:35;27.74;56.36
65876;HTU21D;52657;51.128;5.938;2023-07-29T15:24:01;27.85;54.99
65876;HTU21D;52657;51.128;5.938;2023-07-29T15:26:27;27.82;55.00
65876;HTU21D;52657;51.128;5.938;2023-07-29T15:28:53;27.80;55.58
65876;HTU21D;52657;51.128;5.938;2023-07-29T15:31:19;27.89;54.60
65876;HTU21D;52657;51.128;5.938;2023-07-29T15:33:45;27.83;54.51
65876;HTU21D;52657;51.128;5.938;2023-07-29T15:36:11;27.87;54.84
65876;HTU21D;52657;51.128;5.938;2023-07-29T15:38:37;27.88;54.39
65876;HTU21D;52657;51.128;5.938;2023-07-29T15:41:03;27.72;53.78